Time;durP1;ratioP1;P1;durP2;ratioP2;P2;SDS_P1;SDS_P2;PMS_P1;PMS_P2;Temp;Humidity;BMP_temperature;BMP_pressure;BME280_temperature;BME280_humidity;BME280_pressure;Samples;Min_cycle;Max_cycle;Signal;HPM_P1;HPM_P2
2023/11/30 00:02:18;;;;;;;;;;;;;;;22.12;23.99;97613.22;5014228;28;930;-74
2023/11/30 00:04:43;;;;;;;;;;;;;;;21.91;24.71;97608.28;5033108;28;970;-74
2023/11/30 00:07:11;;;;;;;;;;;;;;;21.93;24.44;97600.13;5038158;28;1357;-75
2023/11/30 00:09:37;;;;;;;;;;;;;;;21.91;24.54;97613.94;5038622;28;1232;-74
2023/11/30 00:12:06;;;;;;;;;;;;;;;22.10;24.39;97618.53;5038787;28;1909;-74
2023/11/30 00:14:31;;;;;;;;;;;;;;;22.02;24.15;97614.34;5022558;28;1368;-74
2023/11/30 00:16:57;;;;;;;;;;;;;;;21.94;24.38;97613.03;5025343;28;1327;-75
2023/11/30 00:19:22;;;;;;;;;;;;;;;22.05;24.38;97616.28;5018517;28;945;-75
2023/11/30 00:21:48;;;;;;;;;;;;;;;22.10;24.26;97622.19;5018248;28;1051;-74
2023/11/30 00:24:13;;;;;;;;;;;;;;;22.09;24.08;97625.47;5018398;28;865;-74
2023/11/30 00:26:39;;;;;;;;;;;;;;;22.20;24.03;97634.41;5045087;28;1508;-75
2023/11/30 00:29:05;;;;;;;;;;;;;;;21.98;24.28;97642.03;5022196;28;966;-74
2023/11/30 00:31:31;;;;;;;;;;;;;;;22.03;24.25;97639.41;5038427;28;2012;-75
2023/11/30 00:33:56;;;;;;;;;;;;;;;21.81;24.38;97650.69;5021757;28;1238;-75
2023/11/30 00:36:22;;;;;;;;;;;;;;;22.03;24.40;97650.75;5055603;28;1302;-75
2023/11/30 00:38:47;;;;;;;;;;;;;;;22.55;23.35;97652.22;5056124;28;886;-75
2023/11/30 00:41:13;;;;;;;;;;;;;;;22.48;23.36;97671.50;5038309;28;1193;-75
2023/11/30 00:43:39;;;;;;;;;;;;;;;22.35;23.49;97663.84;5021889;28;1107;-75
2023/11/30 00:46:05;;;;;;;;;;;;;;;22.68;23.31;97674.03;5037574;28;1452;-75
2023/11/30 00:48:31;;;;;;;;;;;;;;;22.54;23.44;97683.88;5038061;28;1494;-74
2023/11/30 00:50:56;;;;;;;;;;;;;;;22.15;23.83;97680.34;5021875;28;1254;-75
2023/11/30 00:53:22;;;;;;;;;;;;;;;21.38;25.04;97695.75;5056009;28;1902;-75
2023/11/30 00:55:48;;;;;;;;;;;;;;;21.75;24.25;97680.00;5037520;28;1407;-75
2023/11/30 00:58:13;;;;;;;;;;;;;;;21.48;25.04;97694.63;5053549;28;1102;-74
2023/11/30 01:00:39;;;;;;;;;;;;;;;21.20;25.06;97702.72;5053351;28;1033;-75
2023/11/30 01:03:04;;;;;;;;;;;;;;;21.39;24.84;97691.66;5053744;28;1048;-74
2023/11/30 01:05:30;;;;;;;;;;;;;;;21.39;24.96;97697.31;5036505;28;1576;-75
2023/11/30 01:07:55;;;;;;;;;;;;;;;20.74;25.68;97698.38;5036933;28;1120;-74
2023/11/30 01:10:21;;;;;;;;;;;;;;;20.67;25.89;97705.00;5020494;28;1160;-75
2023/11/30 01:12:46;;;;;;;;;;;;;;;20.88;25.16;97708.47;5036259;28;1902;-74
2023/11/30 01:15:12;;;;;;;;;;;;;;;20.35;26.06;97699.41;5052891;28;1336;-75
2023/11/30 01:17:38;;;;;;;;;;;;;;;19.95;26.50;97710.91;5020339;28;1138;-75
2023/11/30 01:20:04;;;;;;;;;;;;;;;20.61;25.23;97711.66;5036825;28;1300;-75
2023/11/30 01:22:29;;;;;;;;;;;;;;;20.83;24.82;97697.72;5052648;28;1306;-74
2023/11/30 01:24:55;;;;;;;;;;;;;;;20.23;25.53;97693.25;5024392;28;1477;-75
2023/11/30 01:27:20;;;;;;;;;;;;;;;20.56;25.08;97698.84;5017329;28;1090;-74
2023/11/30 01:29:46;;;;;;;;;;;;;;;20.67;25.30;97692.91;5017633;28;1135;-74
2023/11/30 01:32:11;;;;;;;;;;;;;;;20.68;24.89;97692.47;5040133;28;1898;-74
2023/11/30 01:34:38;;;;;;;;;;;;;;;20.34;25.32;97703.47;5039052;28;975;-75
2023/11/30 01:37:03;;;;;;;;;;;;;;;20.60;25.20;97710.06;5041759;28;888;-75
2023/11/30 01:39:29;;;;;;;;;;;;;;;20.40;25.16;97707.34;5021884;28;1435;-75
2023/11/30 01:41:55;;;;;;;;;;;;;;;20.25;25.44;97724.66;5040319;28;1361;-75
2023/11/30 01:44:21;;;;;;;;;;;;;;;20.44;25.25;97731.44;5041374;28;1015;-75
2023/11/30 01:46:46;;;;;;;;;;;;;;;20.75;24.96;97740.34;5058941;28;979;-75
2023/11/30 01:49:11;;;;;;;;;;;;;;;20.67;25.79;97749.44;5041216;28;947;-74
2023/11/30 01:51:37;;;;;;;;;;;;;;;21.73;24.58;97748.44;5058487;28;1898;-75
2023/11/30 01:54:03;;;;;;;;;;;;;;;22.59;23.63;97740.00;5036326;28;1007;-74
2023/11/30 01:56:29;;;;;;;;;;;;;;;22.44;23.47;97741.72;4997042;28;1078;-75
2023/11/30 01:58:54;;;;;;;;;;;;;;;22.34;23.52;97744.47;4997199;28;1080;-75
2023/11/30 02:01:20;;;;;;;;;;;;;;;22.43;23.39;97751.47;4997036;28;1289;-75
2023/11/30 02:03:45;;;;;;;;;;;;;;;22.04;23.88;97750.69;5017737;28;1466;-74
2023/11/30 02:06:15;;;;;;;;;;;;;;;21.92;24.31;97757.19;5000678;28;1102;-74
2023/11/30 02:08:42;;;;;;;;;;;;;;;21.90;24.34;97756.81;5000435;28;1176;-75
2023/11/30 02:11:07;;;;;;;;;;;;;;;21.79;24.43;97766.44;5000325;28;1902;-75
2023/11/30 02:13:33;;;;;;;;;;;;;;;21.85;24.53;97773.13;5015043;28;1419;-75
2023/11/30 02:15:59;;;;;;;;;;;;;;;21.71;24.58;97770.75;5003595;28;1605;-74
2023/11/30 02:18:25;;;;;;;;;;;;;;;21.91;24.19;97778.22;4986806;28;1453;-75
2023/11/30 02:20:54;;;;;;;;;;;;;;;21.89;24.18;97780.72;5019811;28;1214;-75
2023/11/30 02:23:20;;;;;;;;;;;;;;;21.85;24.21;97786.50;5006708;28;1505;-75
2023/11/30 02:25:45;;;;;;;;;;;;;;;22.10;23.97;97791.38;5000411;28;974;-75
2023/11/30 02:28:17;;;;;;;;;;;;;;;22.14;23.75;97792.09;5012725;28;922;-75
2023/11/30 02:30:44;;;;;;;;;;;;;;;21.70;24.20;97805.97;4999451;28;928;-74
2023/11/30 02:33:10;;;;;;;;;;;;;;;21.77;24.30;97814.25;5013911;28;1977;-74
2023/11/30 02:35:35;;;;;;;;;;;;;;;21.80;24.04;97806.88;5022629;28;1087;-74
2023/11/30 02:38:01;;;;;;;;;;;;;;;21.93;24.10;97812.59;5019381;28;1214;-75
2023/11/30 02:40:27;;;;;;;;;;;;;;;21.87;24.09;97811.56;5035744;28;1367;-74
2023/11/30 02:42:52;;;;;;;;;;;;;;;21.98;24.11;97807.13;5018881;28;1517;-74
2023/11/30 02:45:18;;;;;;;;;;;;;;;21.97;23.72;97816.09;5019463;28;1195;-75
2023/11/30 02:47:44;;;;;;;;;;;;;;;22.21;23.56;97825.88;5019275;28;1293;-75
2023/11/30 02:50:09;;;;;;;;;;;;;;;21.79;24.33;97816.63;5019019;28;1006;-74
2023/11/30 02:52:35;;;;;;;;;;;;;;;21.64;24.44;97816.25;5002405;28;1986;-75
2023/11/30 02:55:00;;;;;;;;;;;;;;;21.89;23.85;97821.19;5035613;28;1147;-74
2023/11/30 02:57:27;;;;;;;;;;;;;;;21.70;24.24;97819.31;5018899;28;997;-75
2023/11/30 02:59:52;;;;;;;;;;;;;;;22.05;23.87;97828.78;5035344;28;957;-75
2023/11/30 03:02:18;;;;;;;;;;;;;;;22.07;23.66;97834.78;5007638;28;1501;-75
2023/11/30 03:04:45;;;;;;;;;;;;;;;21.79;24.13;97823.09;5035489;28;1113;-75
2023/11/30 03:07:10;;;;;;;;;;;;;;;21.84;24.23;97831.03;5018721;28;1139;-75
2023/11/30 03:09:36;;;;;;;;;;;;;;;21.88;24.07;97832.97;5035304;28;1215;-74
2023/11/30 03:12:01;;;;;;;;;;;;;;;21.98;23.90;97841.13;5014610;28;1915;-75
2023/11/30 03:14:27;;;;;;;;;;;;;;;21.95;23.76;97835.56;5000339;28;1309;-74
2023/11/30 03:16:52;;;;;;;;;;;;;;;21.80;24.26;97838.84;5015093;28;1415;-75
2023/11/30 03:19:18;;;;;;;;;;;;;;;22.00;24.02;97843.50;4998798;28;1085;-75
2023/11/30 03:21:43;;;;;;;;;;;;;;;21.87;23.87;97839.88;5015728;28;920;-75
2023/11/30 03:24:09;;;;;;;;;;;;;;;22.03;24.00;97842.63;4999243;28;1367;-75
2023/11/30 03:26:36;;;;;;;;;;;;;;;22.02;23.77;97852.34;4998653;28;1059;-74
2023/11/30 03:29:01;;;;;;;;;;;;;;;22.02;23.99;97846.69;4998977;28;1007;-74
2023/11/30 03:31:27;;;;;;;;;;;;;;;21.71;24.27;97850.06;4998559;28;1995;-74
2023/11/30 03:33:52;;;;;;;;;;;;;;;21.79;24.33;97845.75;4999045;28;1389;-75
2023/11/30 03:36:18;;;;;;;;;;;;;;;21.92;23.85;97839.31;4998827;28;977;-75
2023/11/30 03:38:43;;;;;;;;;;;;;;;21.49;24.45;97846.22;4982367;28;1123;-74
2023/11/30 03:41:09;;;;;;;;;;;;;;;21.36;24.58;97862.38;4966351;28;1300;-74
2023/11/30 03:43:34;;;;;;;;;;;;;;;21.09;24.87;97863.50;5026088;28;1375;-75
2023/11/30 03:46:00;;;;;;;;;;;;;;;21.68;24.19;97862.25;5022337;28;941;-75
2023/11/30 03:48:25;;;;;;;;;;;;;;;21.84;24.02;97870.69;5022870;28;1591;-75
2023/11/30 03:50:52;;;;;;;;;;;;;;;21.72;23.96;97865.78;5022499;28;1307;-75
2023/11/30 03:53:18;;;;;;;;;;;;;;;21.88;23.98;97858.47;5018041;28;1895;-75
2023/11/30 03:55:44;;;;;;;;;;;;;;;22.06;23.65;97859.50;5030107;28;1501;-76
2023/11/30 03:58:09;;;;;;;;;;;;;;;21.84;23.75;97870.69;5048568;28;1465;-74
2023/11/30 04:00:35;;;;;;;;;;;;;;;21.65;24.05;97868.03;5022622;28;1259;-75
2023/11/30 04:03:00;;;;;;;;;;;;;;;21.92;23.60;97876.94;5037853;28;1299;-74
2023/11/30 04:05:26;;;;;;;;;;;;;;;21.82;23.86;97881.69;5056385;28;927;-75
2023/11/30 04:07:51;;;;;;;;;;;;;;;21.81;23.74;97884.94;5038772;28;934;-75
2023/11/30 04:10:17;;;;;;;;;;;;;;;22.21;23.48;97882.56;5038412;28;1235;-74
2023/11/30 04:12:42;;;;;;;;;;;;;;;22.08;23.34;97873.22;5052731;28;1898;-75
2023/11/30 04:15:08;;;;;;;;;;;;;;;22.03;23.74;97876.63;5036675;28;1617;-74
2023/11/30 04:17:34;;;;;;;;;;;;;;;21.72;23.86;97873.50;5004730;28;1371;-74
2023/11/30 04:20:00;;;;;;;;;;;;;;;21.74;24.05;97871.78;5037641;28;1025;-74
2023/11/30 04:22:26;;;;;;;;;;;;;;;21.72;23.76;97877.13;5020137;28;1441;-74
2023/11/30 04:24:51;;;;;;;;;;;;;;;21.87;23.75;97868.22;5053548;28;1363;-75
2023/11/30 04:27:17;;;;;;;;;;;;;;;21.88;23.55;97878.28;5053852;28;1149;-74
2023/11/30 04:29:43;;;;;;;;;;;;;;;21.88;23.77;97881.13;5053606;28;965;-75
2023/11/30 04:32:08;;;;;;;;;;;;;;;21.88;23.59;97886.78;5053669;28;1977;-75
2023/11/30 04:34:34;;;;;;;;;;;;;;;22.01;23.56;97879.09;5035905;28;1453;-75
2023/11/30 04:36:59;;;;;;;;;;;;;;;21.99;23.34;97881.59;5036925;28;1360;-75
2023/11/30 04:39:25;;;;;;;;;;;;;;;22.11;23.17;97880.84;5053590;28;1265;-74
2023/11/30 04:41:52;;;;;;;;;;;;;;;22.15;23.23;97889.25;5020905;28;1143;-75
2023/11/30 04:44:20;;;;;;;;;;;;;;;21.99;23.47;97888.03;5021683;28;955;-75
2023/11/30 04:46:45;;;;;;;;;;;;;;;21.92;23.65;97887.47;5038245;28;1629;-75
2023/11/30 04:49:11;;;;;;;;;;;;;;;21.95;23.56;97878.06;5021242;28;1760;-75
2023/11/30 04:51:37;;;;;;;;;;;;;;;21.96;23.55;97899.47;5021579;28;1918;-75
2023/11/30 04:54:02;;;;;;;;;;;;;;;21.94;23.58;97897.09;5053396;28;1068;-76
2023/11/30 04:56:28;;;;;;;;;;;;;;;21.70;23.60;97905.06;5020351;28;1251;-75
2023/11/30 04:58:53;;;;;;;;;;;;;;;21.99;23.56;97904.25;5036225;28;2222;-74
2023/11/30 05:01:19;;;;;;;;;;;;;;;21.97;23.29;97907.56;5053686;28;974;-74
2023/11/30 05:03:45;;;;;;;;;;;;;;;21.87;23.46;97913.53;5036632;28;1136;-75
2023/11/30 05:06:10;;;;;;;;;;;;;;;21.93;23.33;97917.41;5053389;28;1260;-74
2023/11/30 05:08:36;;;;;;;;;;;;;;;21.96;23.45;97922.16;5069970;28;1094;-74
2023/11/30 05:11:01;;;;;;;;;;;;;;;22.16;23.13;97922.78;5073507;28;967;-74
2023/11/30 05:13:27;;;;;;;;;;;;;;;21.79;23.55;97933.53;5073829;28;1968;-75
2023/11/30 05:15:52;;;;;;;;;;;;;;;21.84;23.68;97943.53;5074042;28;982;-74
2023/11/30 05:18:18;;;;;;;;;;;;;;;22.29;23.08;97939.81;5056562;28;1301;-74
2023/11/30 05:20:43;;;;;;;;;;;;;;;21.97;23.18;97946.41;5048443;28;1328;-75
2023/11/30 05:23:09;;;;;;;;;;;;;;;22.02;23.31;97948.66;5039832;28;1384;-75
2023/11/30 05:25:35;;;;;;;;;;;;;;;21.72;23.83;97952.78;5040642;28;1297;-74
2023/11/30 05:28:00;;;;;;;;;;;;;;;21.91;23.39;97956.69;5040944;28;1137;-76
2023/11/30 05:30:26;;;;;;;;;;;;;;;22.15;22.80;97972.22;5049167;28;1372;-76
2023/11/30 05:32:51;;;;;;;;;;;;;;;21.85;23.15;97979.91;5041024;28;1910;-76
2023/11/30 05:35:17;;;;;;;;;;;;;;;21.64;23.46;97991.81;5040848;28;1249;-76
2023/11/30 05:37:42;;;;;;;;;;;;;;;21.31;23.79;97986.22;5041219;28;1269;-76
2023/11/30 05:40:08;;;;;;;;;;;;;;;21.47;24.01;97995.94;5063086;28;1259;-76
2023/11/30 05:42:34;;;;;;;;;;;;;;;21.71;23.31;98002.97;5024038;28;1277;-76
2023/11/30 05:44:59;;;;;;;;;;;;;;;21.74;23.50;97998.44;5032458;28;1222;-76
2023/11/30 05:47:25;;;;;;;;;;;;;;;21.67;23.57;97999.44;5048680;28;1383;-76
2023/11/30 05:49:50;;;;;;;;;;;;;;;21.79;23.51;98010.00;5040268;28;1345;-76
2023/11/30 05:52:16;;;;;;;;;;;;;;;21.58;23.43;98013.44;5040224;28;1906;-76
2023/11/30 05:54:41;;;;;;;;;;;;;;;21.89;23.24;98018.66;5033121;28;1250;-77
2023/11/30 05:57:07;;;;;;;;;;;;;;;21.70;23.53;98038.16;5015971;28;1253;-76
2023/11/30 05:59:32;;;;;;;;;;;;;;;21.82;23.39;98034.63;5047766;28;1312;-76
2023/11/30 06:01:59;;;;;;;;;;;;;;;21.88;23.33;98036.91;5040363;28;1245;-77
2023/11/30 06:04:27;;;;;;;;;;;;;;;21.68;23.50;98040.66;5029337;28;1289;-76
2023/11/30 06:06:52;;;;;;;;;;;;;;;21.69;23.59;98045.09;5045039;28;1316;-76
2023/11/30 06:09:18;;;;;;;;;;;;;;;21.83;23.41;98050.38;5047428;28;1288;-76
2023/11/30 06:11:44;;;;;;;;;;;;;;;21.66;23.79;98051.66;5033093;28;1969;-76
2023/11/30 06:14:09;;;;;;;;;;;;;;;21.68;23.85;98049.16;5036594;28;1008;-77
2023/11/30 06:16:35;;;;;;;;;;;;;;;21.77;23.88;98040.84;4986810;28;1117;-76
2023/11/30 06:19:00;;;;;;;;;;;;;;;21.93;23.17;98048.50;5036277;28;1016;-76
2023/11/30 06:21:26;;;;;;;;;;;;;;;21.66;23.54;98051.66;5019088;28;1143;-76
2023/11/30 06:23:51;;;;;;;;;;;;;;;21.60;23.85;98059.06;4976854;28;1179;-76
2023/11/30 06:26:17;;;;;;;;;;;;;;;21.61;23.87;98055.03;4977252;28;1033;-76
2023/11/30 06:28:43;;;;;;;;;;;;;;;21.60;23.86;98070.38;4977206;28;1134;-76
2023/11/30 06:31:08;;;;;;;;;;;;;;;21.59;24.03;98075.25;4977194;28;1069;-75
2023/11/30 06:33:34;;;;;;;;;;;;;;;21.92;23.57;98085.78;4960904;28;1907;-75
2023/11/30 06:36:01;;;;;;;;;;;;;;;21.87;23.70;98078.63;4976953;28;1099;-76
2023/11/30 06:38:27;;;;;;;;;;;;;;;21.67;23.58;98087.22;4962195;28;1230;-76
2023/11/30 06:40:52;;;;;;;;;;;;;;;21.77;23.75;98080.47;4941221;29;1576;-76
2023/11/30 06:43:18;;;;;;;;;;;;;;;21.78;23.76;98087.72;4987840;28;933;-76
2023/11/30 06:45:43;;;;;;;;;;;;;;;21.83;23.40;98092.88;4992655;28;924;-77
2023/11/30 06:48:09;;;;;;;;;;;;;;;21.98;23.38;98106.66;4993280;28;1271;-76
2023/11/30 06:50:34;;;;;;;;;;;;;;;21.86;23.64;98113.81;4976553;28;1015;-76
2023/11/30 06:53:00;;;;;;;;;;;;;;;21.63;23.76;98114.81;4960365;28;1903;-75
2023/11/30 06:55:25;;;;;;;;;;;;;;;21.95;23.35;98101.88;5022020;28;982;-76
2023/11/30 06:57:51;;;;;;;;;;;;;;;21.91;23.72;98118.16;5015384;28;1015;-76
2023/11/30 07:00:18;;;;;;;;;;;;;;;21.85;23.57;98113.03;5031869;28;988;-75
2023/11/30 07:02:44;;;;;;;;;;;;;;;22.02;23.34;98118.66;5015057;28;891;-76
2023/11/30 07:05:09;;;;;;;;;;;;;;;21.55;23.90;98119.06;4999130;28;1131;-75
2023/11/30 07:07:35;;;;;;;;;;;;;;;21.67;23.83;98109.88;4982721;28;1222;-75
2023/11/30 07:10:00;;;;;;;;;;;;;;;21.49;24.43;98112.34;5016498;28;1033;-76
2023/11/30 07:12:26;;;;;;;;;;;;;;;21.64;23.91;98099.41;4963443;28;1910;-75
2023/11/30 07:14:51;;;;;;;;;;;;;;;21.94;23.42;98089.75;5013653;28;1098;-75
2023/11/30 07:17:17;;;;;;;;;;;;;;;21.78;23.69;98076.41;5032937;28;1301;-76
2023/11/30 07:19:42;;;;;;;;;;;;;;;21.81;23.82;98063.38;5000112;28;1026;-76
2023/11/30 07:22:08;;;;;;;;;;;;;;;21.74;23.36;98058.69;5017471;28;1076;-76
2023/11/30 07:24:33;;;;;;;;;;;;;;;21.79;23.51;98055.34;5017354;28;885;-76
2023/11/30 07:26:59;;;;;;;;;;;;;;;21.55;23.80;98063.25;5016379;28;1002;-75
2023/11/30 07:29:25;;;;;;;;;;;;;;;21.85;23.38;98069.75;5032726;28;1087;-75
2023/11/30 07:31:51;;;;;;;;;;;;;;;21.99;23.14;98066.53;5016535;28;2327;-76
2023/11/30 07:34:16;;;;;;;;;;;;;;;21.68;23.33;98066.16;4999816;28;1029;-76
2023/11/30 07:36:42;;;;;;;;;;;;;;;21.44;23.98;98067.56;5017043;28;924;-76
2023/11/30 07:39:08;;;;;;;;;;;;;;;21.09;24.26;98075.66;5015942;28;995;-76
2023/11/30 07:41:34;;;;;;;;;;;;;;;21.58;23.90;98067.22;5032688;28;1214;-76
2023/11/30 07:43:59;;;;;;;;;;;;;;;21.83;23.40;98067.38;5015860;28;981;-76
2023/11/30 07:46:25;;;;;;;;;;;;;;;21.60;23.74;98073.22;4999582;28;1139;-76
2023/11/30 07:48:51;;;;;;;;;;;;;;;21.80;23.39;98079.56;5017993;28;1158;-76
2023/11/30 07:51:16;;;;;;;;;;;;;;;21.80;23.55;98076.75;5018097;28;1095;-76
2023/11/30 07:53:42;;;;;;;;;;;;;;;21.73;23.68;98084.66;5034110;28;1973;-75
2023/11/30 07:56:08;;;;;;;;;;;;;;;21.77;23.61;98097.47;5001654;28;1164;-76
2023/11/30 07:58:33;;;;;;;;;;;;;;;21.69;23.76;98101.72;4995015;28;1110;-76
2023/11/30 08:00:59;;;;;;;;;;;;;;;21.94;23.13;98094.63;4978657;28;1217;-76
2023/11/30 08:03:25;;;;;;;;;;;;;;;21.83;23.62;98101.34;4978714;28;992;-76
2023/11/30 08:05:50;;;;;;;;;;;;;;;21.81;23.28;98103.84;4994566;28;903;-76
2023/11/30 08:08:17;;;;;;;;;;;;;;;21.61;23.88;98105.97;4978276;28;1213;-75
2023/11/30 08:10:43;;;;;;;;;;;;;;;21.78;23.70;98110.38;4978453;28;1182;-76
2023/11/30 08:13:10;;;;;;;;;;;;;;;21.94;23.24;98105.94;4978570;28;1971;-76
2023/11/30 08:15:36;;;;;;;;;;;;;;;21.89;23.30;98103.66;4978541;28;846;-76
2023/11/30 08:18:01;;;;;;;;;;;;;;;21.53;23.81;98110.22;4994846;28;963;-76
2023/11/30 08:20:27;;;;;;;;;;;;;;;21.45;23.88;98114.44;4962293;28;1239;-75
2023/11/30 08:22:53;;;;;;;;;;;;;;;21.65;23.80;98123.66;4978352;28;1118;-76
2023/11/30 08:25:19;;;;;;;;;;;;;;;21.54;23.83;98111.81;4976157;28;906;-76
2023/11/30 08:27:44;;;;;;;;;;;;;;;21.81;23.32;98123.69;4975235;28;1025;-76
2023/11/30 08:30:10;;;;;;;;;;;;;;;21.95;23.43;98116.84;4942914;28;1371;-76
2023/11/30 08:32:37;;;;;;;;;;;;;;;21.74;23.65;98115.34;4950307;28;1973;-76
2023/11/30 08:35:03;;;;;;;;;;;;;;;21.80;23.64;98112.78;4968278;28;1116;-76
2023/11/30 08:37:28;;;;;;;;;;;;;;;21.96;23.57;98109.13;5004128;28;1270;-76
2023/11/30 08:39:54;;;;;;;;;;;;;;;21.68;23.84;98105.00;4990776;28;1254;-76
2023/11/30 08:42:21;;;;;;;;;;;;;;;21.84;23.60;98096.50;4977994;28;1100;-76
2023/11/30 08:44:47;;;;;;;;;;;;;;;21.80;23.80;98102.25;4981610;28;1324;-76
2023/11/30 08:47:13;;;;;;;;;;;;;;;21.77;23.95;98105.19;4950069;28;1147;-76
2023/11/30 08:49:38;;;;;;;;;;;;;;;21.83;23.94;98104.19;4998573;28;1028;-76
2023/11/30 08:52:04;;;;;;;;;;;;;;;21.67;24.08;98109.88;4965461;28;1907;-74
2023/11/30 08:54:30;;;;;;;;;;;;;;;21.26;24.60;98114.06;4998323;28;1316;-73
2023/11/30 08:56:55;;;;;;;;;;;;;;;21.02;24.96;98106.94;4981719;28;911;-74
2023/11/30 08:59:21;;;;;;;;;;;;;;;21.47;24.06;98106.34;4981934;28;1099;-73
2023/11/30 09:01:48;;;;;;;;;;;;;;;21.90;23.53;98105.25;4998269;28;956;-74
2023/11/30 09:04:13;;;;;;;;;;;;;;;21.61;23.82;98105.97;4981908;28;970;-74
2023/11/30 09:06:39;;;;;;;;;;;;;;;21.82;23.69;98082.78;4996523;28;1122;-74
2023/11/30 09:09:04;;;;;;;;;;;;;;;21.89;23.57;98086.66;5010194;28;999;-75
2023/11/30 09:11:33;;;;;;;;;;;;;;;21.69;23.73;98084.72;4998111;28;1984;-75
2023/11/30 09:13:58;;;;;;;;;;;;;;;21.99;23.63;98082.75;5025772;28;1156;-75
2023/11/30 09:16:25;;;;;;;;;;;;;;;21.82;23.53;98071.44;5002555;28;1103;-75
2023/11/30 09:18:51;;;;;;;;;;;;;;;21.88;23.68;98079.41;5001155;28;962;-75
2023/11/30 09:21:17;;;;;;;;;;;;;;;21.85;23.62;98067.72;5016936;28;928;-75
2023/11/30 09:23:42;;;;;;;;;;;;;;;21.47;24.21;98072.34;5017333;28;1460;-75
2023/11/30 09:26:08;;;;;;;;;;;;;;;21.13;24.47;98069.91;5017109;28;1269;-75
2023/11/30 09:28:36;;;;;;;;;;;;;;;20.75;25.17;98065.50;5017206;28;1058;-74
2023/11/30 09:31:02;;;;;;;;;;;;;;;21.43;24.08;98071.66;5033519;28;1173;-75
2023/11/30 09:33:29;;;;;;;;;;;;;;;21.65;23.74;98052.88;5033574;28;1879;-75
2023/11/30 09:35:56;;;;;;;;;;;;;;;21.73;23.81;98065.63;5033664;28;1033;-74
2023/11/30 09:38:21;;;;;;;;;;;;;;;21.55;23.81;98051.09;5000522;28;1135;-74
2023/11/30 09:40:46;;;;;;;;;;;;;;;21.99;23.63;98041.03;5024564;28;1156;-74
2023/11/30 09:43:15;;;;;;;;;;;;;;;21.87;23.64;98033.28;4975889;28;1227;-75
2023/11/30 09:45:41;;;;;;;;;;;;;;;21.96;23.63;98041.13;5025018;28;1411;-74
2023/11/30 09:48:06;;;;;;;;;;;;;;;21.72;23.85;98043.41;5016902;28;1320;-75
2023/11/30 09:50:32;;;;;;;;;;;;;;;21.89;23.85;98044.16;5013603;28;915;-75
2023/11/30 09:52:57;;;;;;;;;;;;;;;21.98;23.52;98050.00;5017520;28;2041;-74
2023/11/30 09:55:25;;;;;;;;;;;;;;;21.69;23.70;98042.25;5017071;28;954;-75
2023/11/30 09:57:50;;;;;;;;;;;;;;;22.06;23.30;98040.03;5018006;28;923;-74
2023/11/30 10:00:16;;;;;;;;;;;;;;;21.65;23.70;98038.72;5017980;28;891;-75
2023/11/30 10:02:54;;;;;;;;;;;;;;;21.53;23.97;98033.78;5017363;28;903;-75
2023/11/30 10:05:20;;;;;;;;;;;;;;;21.38;24.16;98036.16;5017472;28;951;-74
2023/11/30 10:07:45;;;;;;;;;;;;;;;21.63;23.85;98029.88;5017708;28;1063;-74
2023/11/30 10:10:11;;;;;;;;;;;;;;;21.72;23.84;98021.53;5033627;28;1318;-75
2023/11/30 10:12:36;;;;;;;;;;;;;;;21.94;23.66;98026.63;5070598;28;1961;-75
2023/11/30 10:15:02;;;;;;;;;;;;;;;22.04;23.34;98025.53;5038127;28;989;-74
2023/11/30 10:17:28;;;;;;;;;;;;;;;21.73;24.05;98028.78;5054009;28;1090;-75
2023/11/30 10:19:56;;;;;;;;;;;;;;;21.92;23.65;98034.78;5036653;28;2034;-75
2023/11/30 10:22:25;;;;;;;;;;;;;;;21.81;23.79;98040.72;5020804;28;964;-74
2023/11/30 10:24:51;;;;;;;;;;;;;;;21.83;23.91;98032.59;5021035;28;943;-74
2023/11/30 10:27:20;;;;;;;;;;;;;;;22.01;23.40;98037.75;5036983;28;950;-75
2023/11/30 10:29:46;;;;;;;;;;;;;;;22.22;23.41;98031.50;5037830;28;896;-75
2023/11/30 10:32:12;;;;;;;;;;;;;;;22.03;23.64;98029.63;5020796;28;1957;-74
2023/11/30 10:34:40;;;;;;;;;;;;;;;21.44;24.41;98030.78;5036925;28;935;-74
2023/11/30 10:37:06;;;;;;;;;;;;;;;21.19;24.63;98023.69;5020545;28;1235;-74
2023/11/30 10:39:32;;;;;;;;;;;;;;;21.52;24.29;98030.16;5020273;28;1067;-74
2023/11/30 10:41:59;;;;;;;;;;;;;;;21.63;24.17;98018.53;5035552;28;1034;-75
2023/11/30 10:44:27;;;;;;;;;;;;;;;21.70;24.22;98018.34;5002873;28;926;-74
2023/11/30 10:46:56;;;;;;;;;;;;;;;21.65;24.21;98021.72;5018939;28;991;-75
2023/11/30 10:49:23;;;;;;;;;;;;;;;21.74;23.85;98012.59;5019037;28;955;-74
2023/11/30 10:51:52;;;;;;;;;;;;;;;21.89;23.84;98021.50;5019013;28;1963;-75
2023/11/30 10:54:49;;;;;;;;;;;;;;;21.71;24.19;98019.97;5019075;28;978;-75
2023/11/30 10:57:14;;;;;;;;;;;;;;;21.91;23.76;98016.97;4976526;28;1067;-75
2023/11/30 10:59:47;;;;;;;;;;;;;;;21.88;23.80;98005.75;4960469;28;912;-76
2023/11/30 11:02:14;;;;;;;;;;;;;;;21.83;23.93;98004.25;4944795;28;1235;-76
2023/11/30 11:04:40;;;;;;;;;;;;;;;22.07;23.46;98004.78;4944543;28;908;-76
2023/11/30 11:07:06;;;;;;;;;;;;;;;21.88;23.84;98003.72;4944517;28;1104;-76
2023/11/30 11:09:41;;;;;;;;;;;;;;;21.70;24.25;98003.41;4944098;28;1538;-76
2023/11/30 11:12:17;;;;;;;;;;;;;;;21.28;24.53;98004.03;4962885;28;1977;-75
2023/11/30 11:14:42;;;;;;;;;;;;;;;21.50;24.16;97997.84;4995871;28;920;-75
2023/11/30 11:17:08;;;;;;;;;;;;;;;21.76;24.14;97999.59;4995784;28;966;-76
2023/11/30 11:19:37;;;;;;;;;;;;;;;21.96;23.44;98007.13;4995446;28;1003;-76
2023/11/30 11:22:12;;;;;;;;;;;;;;;21.88;24.01;98002.94;5011971;28;1243;-76
2023/11/30 11:24:40;;;;;;;;;;;;;;;21.64;24.37;98003.16;4963271;28;1280;-76
2023/11/30 11:27:06;;;;;;;;;;;;;;;21.81;24.22;98001.88;4995272;28;1020;-76
2023/11/30 11:29:31;;;;;;;;;;;;;;;21.43;24.55;97998.03;4995585;28;949;-76
2023/11/30 11:31:58;;;;;;;;;;;;;;;21.76;24.14;97993.94;4962704;28;1899;-76
2023/11/30 11:34:23;;;;;;;;;;;;;;;21.54;24.24;97988.03;4988685;28;981;-75
2023/11/30 11:36:49;;;;;;;;;;;;;;;21.48;24.32;97989.81;4995371;28;872;-75
2023/11/30 11:39:16;;;;;;;;;;;;;;;21.40;24.62;97988.44;4994999;28;934;-76
2023/11/30 11:41:42;;;;;;;;;;;;;;;21.69;24.04;97987.66;5011441;28;837;-75
2023/11/30 11:44:08;;;;;;;;;;;;;;;21.96;24.02;97995.81;5011479;28;782;-76
2023/11/30 11:46:34;;;;;;;;;;;;;;;21.99;23.69;97990.03;4994991;28;1064;-76
2023/11/30 11:49:00;;;;;;;;;;;;;;;21.80;24.19;97988.94;4997964;28;1107;-76
2023/11/30 11:51:25;;;;;;;;;;;;;;;21.90;23.68;97997.59;4998357;28;1526;-76
2023/11/30 11:53:51;;;;;;;;;;;;;;;21.78;24.13;97996.31;5014015;28;2072;-76
2023/11/30 11:56:16;;;;;;;;;;;;;;;21.71;24.13;97991.63;4998032;28;858;-75
2023/11/30 11:58:42;;;;;;;;;;;;;;;21.88;23.90;97997.25;4949661;28;1013;-76
2023/11/30 12:01:08;;;;;;;;;;;;;;;21.92;24.03;97984.59;4997948;28;931;-76
2023/11/30 12:03:43;;;;;;;;;;;;;;;21.88;24.02;97985.94;5014438;28;955;-76
2023/11/30 12:06:09;;;;;;;;;;;;;;;22.01;23.73;97981.88;5013866;28;940;-76
2023/11/30 12:08:35;;;;;;;;;;;;;;;22.09;23.60;97973.97;5034006;28;1116;-76
2023/11/30 12:11:00;;;;;;;;;;;;;;;21.83;23.88;97971.06;5001292;28;1210;-75
2023/11/30 12:13:26;;;;;;;;;;;;;;;21.51;24.49;97959.84;5000812;28;1981;-76
2023/11/30 12:15:53;;;;;;;;;;;;;;;21.70;24.26;97972.25;5017789;28;898;-75
2023/11/30 12:18:19;;;;;;;;;;;;;;;21.59;24.39;97967.66;5033801;28;899;-76
2023/11/30 12:20:44;;;;;;;;;;;;;;;21.78;24.11;97980.09;5034092;28;1320;-75
2023/11/30 12:23:12;;;;;;;;;;;;;;;21.80;24.17;97993.81;5001106;28;1087;-75
2023/11/30 12:25:38;;;;;;;;;;;;;;;21.88;23.95;97977.44;5034070;28;964;-75
2023/11/30 12:28:04;;;;;;;;;;;;;;;21.74;24.03;97985.06;5050138;28;1218;-75
2023/11/30 12:30:29;;;;;;;;;;;;;;;21.78;23.82;97985.78;5017930;28;1034;-75
2023/11/30 12:32:55;;;;;;;;;;;;;;;21.98;23.82;97988.47;5035207;28;1906;-76
2023/11/30 12:35:20;;;;;;;;;;;;;;;21.82;24.02;97985.69;5035277;28;887;-76
2023/11/30 12:37:48;;;;;;;;;;;;;;;21.57;24.23;97972.19;5035071;28;931;-76
2023/11/30 12:40:14;;;;;;;;;;;;;;;21.26;24.83;97972.56;5034865;28;1004;-75
2023/11/30 12:42:41;;;;;;;;;;;;;;;21.64;24.42;97957.03;5034699;28;978;-76
2023/11/30 12:45:07;;;;;;;;;;;;;;;21.63;24.26;97966.78;5035044;28;904;-76
2023/11/30 12:47:32;;;;;;;;;;;;;;;21.77;23.98;97967.19;5033974;28;1000;-76
2023/11/30 12:49:58;;;;;;;;;;;;;;;21.63;24.46;97966.78;5036231;28;1047;-76
2023/11/30 12:52:23;;;;;;;;;;;;;;;21.61;24.34;97958.75;5034815;28;1978;-75
2023/11/30 12:54:49;;;;;;;;;;;;;;;21.91;23.85;97959.53;5036020;28;925;-76